createdAt,value
2022-07-27T00:01:10.198Z,99.90
2022-07-27T00:03:39.028Z,99.90
2022-07-27T00:06:07.808Z,99.90
2022-07-27T00:08:36.246Z,99.90
2022-07-27T00:11:04.632Z,99.90
2022-07-27T00:13:33.218Z,99.90
2022-07-27T00:16:01.508Z,99.90
2022-07-27T00:18:31.057Z,1.00
2022-07-27T00:20:59.216Z,1.00
2022-07-27T00:23:27.333Z,1.00
2022-07-27T00:25:55.442Z,1.00
2022-07-27T00:28:23.638Z,1.00
2022-07-27T00:30:51.759Z,1.00
2022-07-27T00:33:19.886Z,1.00
2022-07-27T00:35:49.393Z,1.00
2022-07-27T00:38:17.556Z,1.00
2022-07-27T00:40:46.183Z,1.00
2022-07-27T00:43:15.190Z,1.00
2022-07-27T00:45:43.424Z,1.00
2022-07-27T00:48:12.055Z,1.00
2022-07-27T00:50:43.420Z,1.00
2022-07-27T00:53:15.049Z,1.00
2022-07-27T00:55:43.683Z,1.00
2022-07-27T00:58:12.002Z,1.00
2022-07-27T01:00:40.369Z,1.00
2022-07-27T01:03:09.536Z,1.00
2022-07-27T01:05:42.707Z,1.00
2022-07-27T01:08:15.020Z,1.00
2022-07-27T01:10:44.496Z,1.00
2022-07-27T01:13:13.558Z,1.00
2022-07-27T01:15:43.262Z,1.00
2022-07-27T01:18:30.137Z,1.00
2022-07-27T01:21:01.031Z,1.00
2022-07-27T01:23:32.451Z,1.00
2022-07-27T01:26:01.458Z,1.00
2022-07-27T01:28:29.949Z,1.00
2022-07-27T01:30:58.685Z,1.00
2022-07-27T01:33:26.901Z,1.00
2022-07-27T01:35:56.917Z,1.00
2022-07-27T01:38:25.145Z,1.00
2022-07-27T01:40:55.404Z,1.00
2022-07-27T01:43:24.015Z,1.00
2022-07-27T01:45:52.479Z,1.00
2022-07-27T01:48:20.970Z,1.00
2022-07-27T01:50:51.019Z,1.00
2022-07-27T01:53:19.432Z,7.40
2022-07-27T01:55:47.699Z,50.90
2022-07-27T01:58:17.602Z,99.90
2022-07-27T02:00:46.440Z,99.90
2022-07-27T02:03:14.660Z,99.90
2022-07-27T02:05:42.826Z,1.00
2022-07-27T02:08:11.139Z,1.00
2022-07-27T02:10:59.847Z,38.80
2022-07-27T02:13:28.518Z,1.00
2022-07-27T02:15:57.075Z,99.90
2022-07-27T02:18:33.079Z,99.90
2022-07-27T02:21:04.657Z,99.90
2022-07-27T02:23:32.709Z,55.20
2022-07-27T02:26:01.182Z,92.40
2022-07-27T02:28:30.924Z,1.00
2022-07-27T02:30:59.193Z,1.00
2022-07-27T02:33:27.829Z,99.90
2022-07-27T02:35:56.022Z,1.00
2022-07-27T02:38:24.263Z,99.90
2022-07-27T02:40:52.464Z,99.90
2022-07-27T02:43:20.591Z,99.90
2022-07-27T02:45:50.100Z,42.50
2022-07-27T02:48:18.238Z,99.90
2022-07-27T02:50:46.494Z,1.00
2022-07-27T02:53:14.626Z,1.00
2022-07-27T02:55:42.768Z,1.00
2022-07-27T02:58:10.879Z,53.50
2022-07-27T03:00:39.026Z,1.00
2022-07-27T03:03:08.535Z,1.00
2022-07-27T03:05:36.861Z,1.00
2022-07-27T03:08:05.417Z,1.00
2022-07-27T03:10:34.026Z,97.60
2022-07-27T03:13:02.180Z,99.90
2022-07-27T03:15:30.630Z,1.00
2022-07-27T03:17:58.917Z,99.90
2022-07-27T03:20:28.653Z,98.60
2022-07-27T03:22:56.888Z,99.90
2022-07-27T03:25:25.901Z,99.90
2022-07-27T03:27:54.056Z,99.90
2022-07-27T03:30:22.543Z,1.00
2022-07-27T03:32:50.747Z,1.00
2022-07-27T03:35:19.838Z,1.00
2022-07-27T03:37:50.095Z,1.00
2022-07-27T03:40:18.842Z,99.90
2022-07-27T03:42:46.966Z,99.90
2022-07-27T03:45:15.267Z,1.00
2022-07-27T03:47:43.443Z,1.00
2022-07-27T03:50:12.329Z,99.90
2022-07-27T03:52:40.460Z,99.90
2022-07-27T03:55:15.504Z,99.90
2022-07-27T03:57:43.710Z,6.50
2022-07-27T04:00:14.053Z,99.90
2022-07-27T04:02:42.733Z,94.40
2022-07-27T04:05:11.916Z,99.90
2022-07-27T04:07:40.253Z,99.90
2022-07-27T04:10:09.863Z,99.90
2022-07-27T04:12:41.382Z,99.90
2022-07-27T04:15:11.219Z,99.90
2022-07-27T04:17:55.467Z,99.90
2022-07-27T04:20:25.112Z,99.90
2022-07-27T04:22:53.224Z,99.90
2022-07-27T04:25:21.540Z,99.90
2022-07-27T04:27:54.307Z,99.90
2022-07-27T04:30:22.892Z,42.70
2022-07-27T04:32:51.210Z,99.90
2022-07-27T04:35:22.756Z,99.90
2022-07-27T04:37:58.375Z,1.00
2022-07-27T04:40:32.791Z,99.90
2022-07-27T04:43:03.627Z,92.10
2022-07-27T04:45:32.132Z,1.00
2022-07-27T04:48:00.474Z,1.00
2022-07-27T04:50:28.663Z,99.90
2022-07-27T04:52:59.917Z,1.00
2022-07-27T04:55:28.184Z,1.00
2022-07-27T04:57:56.430Z,1.00
2022-07-27T05:00:26.300Z,1.00
2022-07-27T05:02:54.826Z,1.00
2022-07-27T05:05:23.211Z,1.00
2022-07-27T05:07:51.487Z,1.00
2022-07-27T05:10:20.780Z,1.00
2022-07-27T05:12:49.959Z,1.00
2022-07-27T05:15:18.396Z,1.00
2022-07-27T05:17:48.175Z,1.00
2022-07-27T05:20:16.512Z,1.00
2022-07-27T05:22:44.630Z,1.00
2022-07-27T05:25:12.860Z,1.00
2022-07-27T05:27:53.767Z,1.00
2022-07-27T05:30:25.410Z,1.00
2022-07-27T05:32:55.012Z,1.00
2022-07-27T05:35:23.344Z,1.00
2022-07-27T05:37:51.524Z,1.00
2022-07-27T05:40:19.734Z,1.00
2022-07-27T05:42:48.046Z,1.00
2022-07-27T05:45:16.643Z,1.00
2022-07-27T05:47:44.922Z,1.00
2022-07-27T05:50:14.555Z,1.00
2022-07-27T05:52:43.170Z,1.00
2022-07-27T05:55:12.319Z,1.00
2022-07-27T05:57:41.972Z,1.00
2022-07-27T06:00:11.814Z,1.00
2022-07-27T06:02:40.134Z,1.00
2022-07-27T06:05:14.863Z,1.00
2022-07-27T06:07:59.718Z,1.00
2022-07-27T06:10:29.321Z,1.00
2022-07-27T06:12:58.051Z,1.00
2022-07-27T06:15:26.576Z,1.00
2022-07-27T06:17:55.157Z,1.00
2022-07-27T06:20:25.349Z,1.00
2022-07-27T06:22:57.191Z,1.00
2022-07-27T06:25:33.931Z,1.00
2022-07-27T06:28:02.967Z,1.00
2022-07-27T06:30:31.210Z,1.00
2022-07-27T06:32:59.740Z,1.00
2022-07-27T06:35:28.190Z,1.00
2022-07-27T06:37:57.832Z,1.00
2022-07-27T06:40:29.541Z,1.00
2022-07-27T06:42:58.320Z,1.00
2022-07-27T06:45:26.549Z,1.00
2022-07-27T06:47:54.736Z,1.00
2022-07-27T06:50:23.430Z,1.00
2022-07-27T06:52:51.568Z,1.00
2022-07-27T06:55:21.219Z,1.00
2022-07-27T06:57:49.419Z,1.00
2022-07-27T07:00:17.934Z,1.00
2022-07-27T07:02:53.954Z,1.00
2022-07-27T07:05:23.049Z,1.00
2022-07-27T07:07:51.274Z,1.00
2022-07-27T07:10:21.651Z,1.00
2022-07-27T07:12:55.490Z,1.00
2022-07-27T07:15:24.808Z,1.00
2022-07-27T07:17:53.161Z,1.00
2022-07-27T07:20:21.255Z,1.00
2022-07-27T07:22:49.439Z,1.00
2022-07-27T07:25:18.052Z,1.00
2022-07-27T07:27:47.611Z,1.00
2022-07-27T07:30:16.210Z,1.00
2022-07-27T07:32:44.486Z,1.00
2022-07-27T07:35:12.631Z,1.00
2022-07-27T07:37:41.003Z,1.00
2022-07-27T07:40:42.707Z,1.00
2022-07-27T07:43:02.567Z,1.00
2022-07-27T07:45:32.055Z,1.00
2022-07-27T07:48:00.842Z,1.00
2022-07-27T07:50:29.333Z,1.00
2022-07-27T07:52:57.564Z,1.00
2022-07-27T07:55:27.781Z,1.00
2022-07-27T07:57:57.582Z,1.00
2022-07-27T08:00:27.642Z,1.00
2022-07-27T08:02:57.910Z,1.00
2022-07-27T08:05:26.862Z,1.00
2022-07-27T08:07:55.722Z,1.00
2022-07-27T08:10:23.817Z,1.00
2022-07-27T08:12:55.517Z,1.00
2022-07-27T08:15:29.902Z,1.00
2022-07-27T08:18:05.429Z,1.00
2022-07-27T08:20:35.705Z,1.00
2022-07-27T08:23:05.043Z,1.00
2022-07-27T08:25:33.823Z,1.00
2022-07-27T08:28:02.598Z,1.00
2022-07-27T08:30:32.376Z,1.00
2022-07-27T08:33:03.188Z,1.00
2022-07-27T08:35:33.735Z,1.00
2022-07-27T08:38:03.374Z,1.00
2022-07-27T08:40:41.835Z,1.00
2022-07-27T08:43:13.003Z,1.00
2022-07-27T08:45:44.176Z,1.00
2022-07-27T08:48:14.863Z,1.00
2022-07-27T08:50:44.994Z,1.00
2022-07-27T08:53:14.479Z,1.00
2022-07-27T08:55:44.806Z,1.00
2022-07-27T08:58:14.328Z,1.00
2022-07-27T09:00:45.012Z,1.00
2022-07-27T09:03:19.211Z,1.00
2022-07-27T09:05:52.387Z,1.00
2022-07-27T09:08:24.099Z,1.00
2022-07-27T09:10:54.428Z,1.00
2022-07-27T09:13:25.098Z,1.00
2022-07-27T09:16:16.780Z,1.00
2022-07-27T09:18:43.900Z,1.00
2022-07-27T09:21:16.118Z,1.00
2022-07-27T09:23:48.263Z,1.00
2022-07-27T09:26:31.830Z,1.00
2022-07-27T09:29:02.497Z,1.00
2022-07-27T09:31:31.949Z,1.00
2022-07-27T09:34:02.319Z,1.00
2022-07-27T09:36:32.423Z,1.00
2022-07-27T09:39:03.808Z,1.00
2022-07-27T09:41:43.696Z,1.00
2022-07-27T09:44:31.184Z,1.00
2022-07-27T09:47:00.815Z,1.00
2022-07-27T09:49:31.805Z,1.00
2022-07-27T09:52:02.926Z,1.00
2022-07-27T09:54:44.434Z,1.00
2022-07-27T09:57:12.695Z,1.00
2022-07-27T09:59:41.238Z,1.00
2022-07-27T10:02:09.585Z,1.00
2022-07-27T10:04:37.960Z,1.00
2022-07-27T10:07:12.999Z,1.00
2022-07-27T10:09:41.888Z,1.00
2022-07-27T10:12:10.607Z,1.00
2022-07-27T10:14:38.751Z,1.00
2022-07-27T10:17:12.885Z,1.00
2022-07-27T10:19:47.157Z,1.00
2022-07-27T10:22:16.711Z,1.00
2022-07-27T10:24:47.696Z,99.90
2022-07-27T10:27:21.321Z,1.00
2022-07-27T10:29:50.547Z,99.90
2022-07-27T10:32:25.524Z,99.90
2022-07-27T10:34:53.672Z,99.90
2022-07-27T10:37:28.015Z,99.90
2022-07-27T10:40:12.109Z,99.90
2022-07-27T10:42:40.781Z,99.90
2022-07-27T10:45:11.278Z,99.90
2022-07-27T10:47:44.920Z,99.90
2022-07-27T10:50:31.731Z,99.90
2022-07-27T10:53:11.064Z,99.90
2022-07-27T10:55:57.211Z,99.90
2022-07-27T10:58:45.130Z,99.90
2022-07-27T11:01:14.544Z,99.90
2022-07-27T11:03:52.489Z,99.90
2022-07-27T11:06:33.184Z,99.90
2022-07-27T11:11:56.477Z,99.90
2022-07-27T11:14:30.647Z,99.90
2022-07-27T11:17:12.337Z,99.90
2022-07-27T11:19:53.606Z,99.90
2022-07-27T11:22:53.623Z,99.90
2022-07-27T11:25:20.315Z,99.90
2022-07-27T11:27:49.200Z,99.90
2022-07-27T11:30:24.719Z,99.90
2022-07-27T11:32:53.657Z,99.90
2022-07-27T11:35:21.928Z,99.90
2022-07-27T11:38:00.542Z,99.90
2022-07-27T11:41:12.662Z,99.90
2022-07-27T11:43:38.753Z,99.90
2022-07-27T11:46:15.616Z,99.90
2022-07-27T11:49:08.279Z,99.90
2022-07-27T11:51:38.246Z,99.90
2022-07-27T11:54:08.563Z,99.90
2022-07-27T11:56:40.175Z,99.90
2022-07-27T11:59:11.969Z,99.90
2022-07-27T12:01:43.315Z,99.90
2022-07-27T12:04:18.725Z,99.90
2022-07-27T12:06:49.928Z,99.90
2022-07-27T12:09:19.174Z,99.90
2022-07-27T12:11:57.550Z,99.90
2022-07-27T12:14:33.234Z,99.90
2022-07-27T12:17:12.740Z,99.90
2022-07-27T12:19:41.863Z,99.90
2022-07-27T12:22:11.039Z,99.90
2022-07-27T12:24:40.788Z,99.90
2022-07-27T12:27:17.167Z,99.90
2022-07-27T12:29:59.693Z,99.90
2022-07-27T12:32:28.864Z,99.90
2022-07-27T12:34:57.375Z,99.90
2022-07-27T12:37:30.522Z,99.90
2022-07-27T12:39:59.346Z,99.90
2022-07-27T12:42:36.396Z,99.90
2022-07-27T12:45:19.280Z,99.90
2022-07-27T12:47:47.951Z,99.90
2022-07-27T12:50:18.636Z,99.90
2022-07-27T12:52:50.927Z,99.90
2022-07-27T12:55:20.553Z,99.90
2022-07-27T12:57:56.054Z,99.90
2022-07-27T13:00:33.604Z,99.90
2022-07-27T13:03:03.846Z,99.90
2022-07-27T13:05:32.743Z,99.90
2022-07-27T13:08:01.493Z,99.90
2022-07-27T13:10:30.091Z,99.90
2022-07-27T13:13:00.102Z,99.90
2022-07-27T13:15:28.444Z,99.90
2022-07-27T13:17:56.675Z,99.90
2022-07-27T13:20:24.909Z,99.90
2022-07-27T13:22:54.459Z,99.90
2022-07-27T13:25:23.128Z,99.90
2022-07-27T13:27:52.222Z,99.90
2022-07-27T13:30:21.811Z,99.90
2022-07-27T13:32:50.051Z,99.90
2022-07-27T13:35:18.084Z,99.90
2022-07-27T13:37:46.879Z,99.90
2022-07-27T13:40:15.926Z,99.90
2022-07-27T13:42:44.253Z,99.90
2022-07-27T13:45:13.148Z,99.90
2022-07-27T13:47:43.740Z,99.90
2022-07-27T13:50:19.048Z,99.90
2022-07-27T13:52:48.829Z,99.90
2022-07-27T13:55:18.105Z,99.90
2022-07-27T13:57:47.719Z,99.90
2022-07-27T14:00:16.823Z,99.90
2022-07-27T14:02:47.184Z,99.90
2022-07-27T14:05:16.186Z,99.90
2022-07-27T14:07:48.475Z,99.90
2022-07-27T14:10:41.731Z,99.90
2022-07-27T14:13:12.782Z,99.90
2022-07-27T14:15:53.674Z,99.90
2022-07-27T14:18:30.764Z,99.90
2022-07-27T14:21:00.400Z,99.90
2022-07-27T14:23:29.327Z,99.90
2022-07-27T14:25:58.896Z,99.90
2022-07-27T14:28:28.564Z,99.90
2022-07-27T14:30:56.912Z,99.90
2022-07-27T14:33:34.010Z,99.90
2022-07-27T14:36:05.458Z,99.90
2022-07-27T14:38:34.174Z,99.90
2022-07-27T14:41:02.354Z,99.90
2022-07-27T14:43:31.627Z,99.90
2022-07-27T14:45:59.922Z,99.90
2022-07-27T14:49:02.865Z,99.90
2022-07-27T14:51:17.739Z,99.90
2022-07-27T14:53:46.112Z,99.90
2022-07-27T14:56:14.448Z,99.90
2022-07-27T14:58:42.696Z,99.90
2022-07-27T15:01:10.869Z,99.90
2022-07-27T15:03:40.459Z,99.90
2022-07-27T15:06:08.695Z,99.90
2022-07-27T15:08:36.973Z,99.90
2022-07-27T15:11:05.382Z,99.90
2022-07-27T15:13:34.057Z,99.90
2022-07-27T15:16:03.339Z,99.90
2022-07-27T15:18:36.592Z,99.90
2022-07-27T15:21:13.571Z,99.90
2022-07-27T15:23:43.294Z,99.90
2022-07-27T15:26:12.566Z,99.90
2022-07-27T15:28:40.852Z,99.90
2022-07-27T15:31:09.630Z,99.90
2022-07-27T15:33:37.919Z,99.90
2022-07-27T15:36:08.519Z,99.90
2022-07-27T15:38:36.790Z,99.90
2022-07-27T15:41:05.355Z,99.90
2022-07-27T15:43:34.323Z,99.90
2022-07-27T15:46:02.860Z,99.90
2022-07-27T15:48:31.480Z,99.90
2022-07-27T15:50:59.752Z,99.90
2022-07-27T15:53:29.799Z,99.90
2022-07-27T15:55:58.091Z,99.90
2022-07-27T15:58:26.275Z,99.90
2022-07-27T16:00:57.606Z,99.90
2022-07-27T16:03:27.191Z,99.90
2022-07-27T16:05:56.684Z,99.90
2022-07-27T16:08:27.113Z,99.90
2022-07-27T16:10:56.657Z,99.90
2022-07-27T16:13:25.681Z,99.90
2022-07-27T16:16:23.117Z,99.90
2022-07-27T16:18:52.164Z,99.90
2022-07-27T16:21:20.648Z,99.90
2022-07-27T16:23:49.579Z,99.90
2022-07-27T16:26:19.199Z,99.90
2022-07-27T16:28:50.023Z,99.90
2022-07-27T16:31:20.514Z,99.90
2022-07-27T16:33:54.944Z,99.90
2022-07-27T16:36:23.456Z,99.90
2022-07-27T16:38:52.171Z,99.90
2022-07-27T16:41:23.230Z,99.90
2022-07-27T16:43:51.770Z,99.90
2022-07-27T16:46:19.966Z,99.90
2022-07-27T16:48:48.296Z,99.90
2022-07-27T16:51:17.443Z,99.90
2022-07-27T16:53:47.968Z,99.90
2022-07-27T16:56:16.189Z,99.90
2022-07-27T16:58:45.712Z,99.90
2022-07-27T17:01:22.120Z,99.90
2022-07-27T17:03:55.368Z,99.90
2022-07-27T17:06:24.135Z,99.90
2022-07-27T17:08:52.517Z,99.90
2022-07-27T17:11:23.790Z,99.90
2022-07-27T17:13:59.428Z,99.90
2022-07-27T17:16:28.617Z,99.90
2022-07-27T17:18:56.927Z,99.90
2022-07-27T17:21:25.221Z,99.90
2022-07-27T17:23:53.486Z,99.90
2022-07-27T17:26:24.989Z,99.90
2022-07-27T17:28:54.964Z,99.90
2022-07-27T17:31:23.790Z,99.90
2022-07-27T17:33:52.478Z,99.90
2022-07-27T17:36:21.591Z,99.90
2022-07-27T17:38:50.897Z,99.90
2022-07-27T17:41:24.613Z,99.90
2022-07-27T17:43:55.060Z,99.90
2022-07-27T17:46:24.522Z,99.90
2022-07-27T17:48:53.832Z,99.90
2022-07-27T17:51:23.216Z,99.90
2022-07-27T17:53:51.459Z,99.90
2022-07-27T17:56:19.832Z,99.90
2022-07-27T17:58:48.213Z,99.90
2022-07-27T18:01:17.927Z,99.90
2022-07-27T18:04:06.585Z,99.90
2022-07-27T18:06:34.923Z,99.90
2022-07-27T18:09:03.094Z,99.90
2022-07-27T18:11:31.283Z,99.90
2022-07-27T18:13:59.523Z,99.90
2022-07-27T18:16:29.169Z,99.90
2022-07-27T18:18:57.348Z,99.90
2022-07-27T18:21:25.483Z,99.90
2022-07-27T18:23:53.678Z,99.90
2022-07-27T18:26:22.178Z,99.90
2022-07-27T18:28:52.647Z,99.90
2022-07-27T18:31:21.010Z,99.90
2022-07-27T18:33:52.581Z,99.90
2022-07-27T18:36:21.045Z,99.90
2022-07-27T18:38:50.027Z,99.90
2022-07-27T18:41:19.617Z,99.90
2022-07-27T18:43:52.001Z,99.90
2022-07-27T18:46:21.280Z,99.90
2022-07-27T18:48:51.298Z,99.90
2022-07-27T18:51:19.558Z,99.90
2022-07-27T18:53:48.902Z,99.90
2022-07-27T18:56:17.104Z,99.90
2022-07-27T18:58:45.339Z,99.90
2022-07-27T19:01:13.588Z,99.90
2022-07-27T19:03:43.657Z,99.90
2022-07-27T19:06:16.670Z,99.90
2022-07-27T19:08:46.555Z,99.90
2022-07-27T19:11:15.117Z,99.90
2022-07-27T19:13:43.483Z,99.90
2022-07-27T19:16:11.582Z,99.90
2022-07-27T19:18:39.719Z,99.90
2022-07-27T19:21:07.978Z,99.90
2022-07-27T19:23:37.655Z,99.90
2022-07-27T19:26:06.838Z,99.90
2022-07-27T19:28:35.125Z,99.90
2022-07-27T19:31:03.383Z,99.90
2022-07-27T19:33:31.645Z,99.90
2022-07-27T19:35:59.908Z,99.90
2022-07-27T19:38:27.953Z,99.90
2022-07-27T19:40:57.582Z,99.90
2022-07-27T19:43:27.361Z,99.90
2022-07-27T19:45:55.914Z,99.90
2022-07-27T19:48:24.730Z,99.90
2022-07-27T19:50:53.449Z,99.90
2022-07-27T19:53:21.750Z,99.90
2022-07-27T19:55:50.153Z,99.90
2022-07-27T19:58:19.821Z,99.90
2022-07-27T20:00:50.280Z,99.90
2022-07-27T20:03:19.013Z,99.90
2022-07-27T20:05:48.314Z,99.90
2022-07-27T20:08:16.663Z,99.90
2022-07-27T20:10:45.158Z,99.90
2022-07-27T20:13:15.813Z,99.90
2022-07-27T20:15:45.667Z,99.90
2022-07-27T20:18:13.868Z,99.90
2022-07-27T20:20:42.263Z,99.90
2022-07-27T20:23:10.447Z,99.90
2022-07-27T20:25:38.565Z,99.90
2022-07-27T20:28:06.757Z,99.90
2022-07-27T20:30:35.209Z,99.90
2022-07-27T20:33:05.053Z,99.90
2022-07-27T20:35:37.704Z,1.00
2022-07-27T20:38:06.648Z,1.00
2022-07-27T20:40:34.806Z,1.00
2022-07-27T20:43:03.234Z,1.00
2022-07-27T20:45:31.591Z,1.00
2022-07-27T20:47:59.784Z,1.00
2022-07-27T20:50:29.418Z,1.00
2022-07-27T20:52:58.094Z,1.00
2022-07-27T20:55:26.230Z,1.00
2022-07-27T20:57:54.367Z,1.00
2022-07-27T21:00:24.849Z,1.00
2022-07-27T21:02:56.959Z,1.00
2022-07-27T21:05:27.065Z,1.00
2022-07-27T21:07:57.255Z,1.00
2022-07-27T21:10:26.315Z,1.00
2022-07-27T21:12:54.723Z,1.00
2022-07-27T21:15:22.868Z,1.00
2022-07-27T21:18:02.229Z,1.00
2022-07-27T21:20:30.592Z,1.00
2022-07-27T21:23:17.493Z,1.00
2022-07-27T21:25:45.658Z,1.00
2022-07-27T21:28:18.354Z,1.00
2022-07-27T21:30:48.405Z,1.00
2022-07-27T21:33:16.672Z,1.00
2022-07-27T21:35:45.174Z,1.00
2022-07-27T21:38:14.811Z,1.00
2022-07-27T21:40:42.938Z,1.00
2022-07-27T21:43:11.097Z,1.00
2022-07-27T21:45:39.272Z,1.00
2022-07-27T21:48:16.213Z,1.00
2022-07-27T21:50:44.358Z,1.00
2022-07-27T21:53:13.917Z,1.00
2022-07-27T21:55:42.058Z,1.00
2022-07-27T21:58:12.508Z,1.00
2022-07-27T22:00:41.236Z,1.00
2022-07-27T22:03:10.256Z,1.00
2022-07-27T22:05:38.807Z,1.00
2022-07-27T22:08:07.068Z,1.00
2022-07-27T22:10:36.907Z,1.00
2022-07-27T22:13:05.358Z,1.00
2022-07-27T22:15:33.507Z,1.00
2022-07-27T22:18:01.629Z,1.00
2022-07-27T22:20:30.591Z,1.00
2022-07-27T22:22:59.058Z,1.00
2022-07-27T22:25:27.178Z,1.00
2022-07-27T22:27:56.659Z,1.00
2022-07-27T22:30:24.989Z,1.00
2022-07-27T22:32:53.159Z,1.00
2022-07-27T22:35:21.265Z,1.00
2022-07-27T22:37:49.595Z,1.00
2022-07-27T22:40:18.876Z,1.00
2022-07-27T22:42:47.018Z,1.00
2022-07-27T22:45:17.625Z,1.00
2022-07-27T22:47:45.789Z,1.00
2022-07-27T22:50:18.230Z,1.00
2022-07-27T22:52:46.753Z,1.00
2022-07-27T22:55:15.241Z,1.00
2022-07-27T22:57:43.388Z,1.00
2022-07-27T23:00:12.933Z,1.00
2022-07-27T23:02:42.478Z,1.00
2022-07-27T23:05:11.236Z,1.00
2022-07-27T23:07:39.445Z,1.00
2022-07-27T23:10:30.720Z,1.00
2022-07-27T23:12:59.165Z,1.00
2022-07-27T23:15:27.442Z,1.00
2022-07-27T23:17:57.162Z,1.00
2022-07-27T23:20:25.337Z,1.00
2022-07-27T23:22:54.318Z,1.00
2022-07-27T23:25:24.837Z,1.00
2022-07-27T23:28:04.258Z,1.00
2022-07-27T23:30:32.459Z,1.00
2022-07-27T23:33:02.066Z,1.00
2022-07-27T23:35:30.586Z,1.00
2022-07-27T23:37:58.733Z,1.00
2022-07-27T23:40:27.384Z,1.00
2022-07-27T23:42:55.595Z,1.00
2022-07-27T23:45:23.879Z,1.00
2022-07-27T23:47:52.166Z,1.00
2022-07-27T23:50:21.726Z,1.00
2022-07-27T23:52:49.814Z,1.00
2022-07-27T23:55:17.999Z,1.00
2022-07-27T23:57:46.062Z,1.00
